Terminal Aerodrome Forecast
Issued by NWS

Home | Current Version | Previous Version | Text Only | Print | Product List | Glossary Off
Versions: 1 2 3 4 5 6 7 8 9 10 11 12 13 14 15

923
FTUS43 KICT 230520
TAFRSL
TAF
KRSL 230520Z 2306/2406 33018G28KT P6SM -SHRA VCTS SCT030 BKN080CB
     FM230900 34018G28KT P6SM BKN080
     FM231400 34015G23KT P6SM SCT050
     FM231700 34018G26KT P6SM VCSH SCT035 BKN070
     FM240100 34010KT P6SM BKN110=

USA.gov is the U.S. government's official web portal to all federal, state and local government web resources and services.